sensor_id;sensor_type;location;lat;lon;timestamp;P1;durP1;ratioP1;P2;durP2;ratioP2
61895;SDS011;47835;52.778;5.956;2022-08-19T00:00:04;3.55;;;2.08;;
61895;SDS011;47835;52.778;5.956;2022-08-19T00:02:34;3.83;;;2.05;;
61895;SDS011;47835;52.778;5.956;2022-08-19T00:05:00;3.10;;;2.20;;
61895;SDS011;47835;52.778;5.956;2022-08-19T00:07:26;3.20;;;2.15;;
61895;SDS011;47835;52.778;5.956;2022-08-19T00:09:52;4.25;;;2.30;;
61895;SDS011;47835;52.778;5.956;2022-08-19T00:12:17;3.53;;;2.38;;
61895;SDS011;47835;52.778;5.956;2022-08-19T00:14:43;3.72;;;2.30;;
61895;SDS011;47835;52.778;5.956;2022-08-19T00:17:08;2.80;;;2.15;;
61895;SDS011;47835;52.778;5.956;2022-08-19T00:19:35;4.15;;;2.47;;
61895;SDS011;47835;52.778;5.956;2022-08-19T00:22:01;3.90;;;2.45;;
61895;SDS011;47835;52.778;5.956;2022-08-19T00:24:27;3.17;;;2.22;;
61895;SDS011;47835;52.778;5.956;2022-08-19T00:26:53;2.83;;;1.90;;
61895;SDS011;47835;52.778;5.956;2022-08-19T00:29:21;3.67;;;2.50;;
61895;SDS011;47835;52.778;5.956;2022-08-19T00:31:48;3.25;;;2.25;;
61895;SDS011;47835;52.778;5.956;2022-08-19T00:34:17;2.92;;;2.10;;
61895;SDS011;47835;52.778;5.956;2022-08-19T00:36:43;3.80;;;2.28;;
61895;SDS011;47835;52.778;5.956;2022-08-19T00:39:09;3.33;;;2.33;;
61895;SDS011;47835;52.778;5.956;2022-08-19T00:41:36;4.55;;;2.08;;
61895;SDS011;47835;52.778;5.956;2022-08-19T00:46:32;3.42;;;2.30;;
61895;SDS011;47835;52.778;5.956;2022-08-19T00:49:02;3.65;;;1.95;;
61895;SDS011;47835;52.778;5.956;2022-08-19T00:51:39;2.78;;;2.13;;
61895;SDS011;47835;52.778;5.956;2022-08-19T00:54:05;2.67;;;2.10;;
61895;SDS011;47835;52.778;5.956;2022-08-19T00:56:31;3.95;;;2.15;;
61895;SDS011;47835;52.778;5.956;2022-08-19T00:58:57;2.50;;;1.95;;
61895;SDS011;47835;52.778;5.956;2022-08-19T01:01:24;2.88;;;2.20;;
61895;SDS011;47835;52.778;5.956;2022-08-19T01:03:50;3.15;;;2.00;;
61895;SDS011;47835;52.778;5.956;2022-08-19T01:06:16;4.60;;;2.17;;
61895;SDS011;47835;52.778;5.956;2022-08-19T01:08:42;3.00;;;1.70;;
61895;SDS011;47835;52.778;5.956;2022-08-19T01:11:07;3.38;;;1.90;;
61895;SDS011;47835;52.778;5.956;2022-08-19T01:13:33;2.92;;;1.83;;
61895;SDS011;47835;52.778;5.956;2022-08-19T01:16:02;3.70;;;2.00;;
61895;SDS011;47835;52.778;5.956;2022-08-19T01:18:30;2.60;;;1.67;;
61895;SDS011;47835;52.778;5.956;2022-08-19T01:21:01;4.35;;;1.92;;
61895;SDS011;47835;52.778;5.956;2022-08-19T01:23:32;3.40;;;1.88;;
61895;SDS011;47835;52.778;5.956;2022-08-19T01:26:14;4.35;;;2.03;;
61895;SDS011;47835;52.778;5.956;2022-08-19T01:28:44;2.87;;;2.00;;
61895;SDS011;47835;52.778;5.956;2022-08-19T01:31:13;2.75;;;1.83;;
61895;SDS011;47835;52.778;5.956;2022-08-19T01:33:41;5.18;;;2.10;;
61895;SDS011;47835;52.778;5.956;2022-08-19T01:36:08;3.42;;;2.10;;
61895;SDS011;47835;52.778;5.956;2022-08-19T01:38:39;2.97;;;2.10;;
61895;SDS011;47835;52.778;5.956;2022-08-19T01:41:07;2.72;;;1.80;;
61895;SDS011;47835;52.778;5.956;2022-08-19T01:43:34;4.65;;;2.25;;
61895;SDS011;47835;52.778;5.956;2022-08-19T01:46:00;2.72;;;2.03;;
61895;SDS011;47835;52.778;5.956;2022-08-19T01:48:26;4.93;;;2.00;;
61895;SDS011;47835;52.778;5.956;2022-08-19T01:50:54;3.55;;;1.90;;
61895;SDS011;47835;52.778;5.956;2022-08-19T01:53:20;3.08;;;2.20;;
61895;SDS011;47835;52.778;5.956;2022-08-19T01:55:46;3.28;;;2.22;;
61895;SDS011;47835;52.778;5.956;2022-08-19T01:58:17;3.17;;;2.28;;
61895;SDS011;47835;52.778;5.956;2022-08-19T02:00:46;3.00;;;2.38;;
61895;SDS011;47835;52.778;5.956;2022-08-19T02:03:12;4.45;;;2.53;;
61895;SDS011;47835;52.778;5.956;2022-08-19T02:05:38;3.83;;;2.40;;
61895;SDS011;47835;52.778;5.956;2022-08-19T02:08:05;3.85;;;2.20;;
61895;SDS011;47835;52.778;5.956;2022-08-19T02:10:31;3.22;;;2.53;;
61895;SDS011;47835;52.778;5.956;2022-08-19T02:12:57;5.10;;;2.70;;
61895;SDS011;47835;52.778;5.956;2022-08-19T02:15:23;3.50;;;2.38;;
61895;SDS011;47835;52.778;5.956;2022-08-19T02:17:50;5.22;;;2.42;;
61895;SDS011;47835;52.778;5.956;2022-08-19T02:20:16;3.72;;;2.40;;
61895;SDS011;47835;52.778;5.956;2022-08-19T02:22:42;3.20;;;2.55;;
61895;SDS011;47835;52.778;5.956;2022-08-19T02:25:11;6.15;;;2.55;;
61895;SDS011;47835;52.778;5.956;2022-08-19T02:27:38;3.35;;;2.55;;
61895;SDS011;47835;52.778;5.956;2022-08-19T02:30:10;3.17;;;2.55;;
61895;SDS011;47835;52.778;5.956;2022-08-19T02:32:46;4.18;;;3.25;;
61895;SDS011;47835;52.778;5.956;2022-08-19T02:35:13;4.03;;;2.95;;
61895;SDS011;47835;52.778;5.956;2022-08-19T02:37:40;4.30;;;2.78;;
61895;SDS011;47835;52.778;5.956;2022-08-19T02:40:24;3.15;;;2.80;;
61895;SDS011;47835;52.778;5.956;2022-08-19T02:42:50;3.60;;;2.60;;
61895;SDS011;47835;52.778;5.956;2022-08-19T02:45:15;4.97;;;2.65;;
61895;SDS011;47835;52.778;5.956;2022-08-19T02:47:41;3.03;;;2.40;;
61895;SDS011;47835;52.778;5.956;2022-08-19T02:50:07;3.35;;;2.50;;
61895;SDS011;47835;52.778;5.956;2022-08-19T02:52:33;3.08;;;2.17;;
61895;SDS011;47835;52.778;5.956;2022-08-19T02:54:59;4.10;;;3.03;;
61895;SDS011;47835;52.778;5.956;2022-08-19T02:57:26;3.78;;;2.33;;
61895;SDS011;47835;52.778;5.956;2022-08-19T02:59:52;3.97;;;2.50;;
61895;SDS011;47835;52.778;5.956;2022-08-19T03:02:18;2.97;;;2.28;;
61895;SDS011;47835;52.778;5.956;2022-08-19T03:04:43;3.88;;;2.63;;
61895;SDS011;47835;52.778;5.956;2022-08-19T03:07:09;3.95;;;2.40;;
61895;SDS011;47835;52.778;5.956;2022-08-19T03:09:39;3.78;;;2.70;;
61895;SDS011;47835;52.778;5.956;2022-08-19T03:12:05;3.92;;;2.35;;
61895;SDS011;47835;52.778;5.956;2022-08-19T03:14:31;3.22;;;2.00;;
61895;SDS011;47835;52.778;5.956;2022-08-19T03:16:57;3.63;;;2.33;;
61895;SDS011;47835;52.778;5.956;2022-08-19T03:19:23;3.10;;;1.83;;
61895;SDS011;47835;52.778;5.956;2022-08-19T03:21:49;3.47;;;2.03;;
61895;SDS011;47835;52.778;5.956;2022-08-19T03:24:16;3.15;;;2.10;;
61895;SDS011;47835;52.778;5.956;2022-08-19T03:26:46;2.80;;;2.10;;
61895;SDS011;47835;52.778;5.956;2022-08-19T03:29:13;3.70;;;2.20;;
61895;SDS011;47835;52.778;5.956;2022-08-19T03:31:41;3.40;;;1.80;;
61895;SDS011;47835;52.778;5.956;2022-08-19T03:34:08;2.88;;;2.13;;
61895;SDS011;47835;52.778;5.956;2022-08-19T03:36:36;3.22;;;2.05;;
61895;SDS011;47835;52.778;5.956;2022-08-19T03:39:03;2.50;;;2.00;;
61895;SDS011;47835;52.778;5.956;2022-08-19T03:41:30;3.33;;;1.80;;
61895;SDS011;47835;52.778;5.956;2022-08-19T03:43:57;3.78;;;2.13;;
61895;SDS011;47835;52.778;5.956;2022-08-19T03:46:25;2.58;;;1.88;;
61895;SDS011;47835;52.778;5.956;2022-08-19T03:48:53;3.13;;;1.85;;
61895;SDS011;47835;52.778;5.956;2022-08-19T03:51:20;2.22;;;1.45;;
61895;SDS011;47835;52.778;5.956;2022-08-19T03:53:48;2.20;;;1.27;;
61895;SDS011;47835;52.778;5.956;2022-08-19T03:56:14;2.35;;;1.52;;
61895;SDS011;47835;52.778;5.956;2022-08-19T03:58:40;3.28;;;1.33;;
61895;SDS011;47835;52.778;5.956;2022-08-19T04:01:11;2.35;;;1.40;;
61895;SDS011;47835;52.778;5.956;2022-08-19T04:03:38;2.42;;;1.40;;
61895;SDS011;47835;52.778;5.956;2022-08-19T04:06:11;1.60;;;1.08;;
61895;SDS011;47835;52.778;5.956;2022-08-19T04:08:39;2.40;;;1.33;;
61895;SDS011;47835;52.778;5.956;2022-08-19T04:11:09;2.92;;;1.13;;
61895;SDS011;47835;52.778;5.956;2022-08-19T04:13:36;2.05;;;1.38;;
61895;SDS011;47835;52.778;5.956;2022-08-19T04:16:03;20.52;;;2.00;;
61895;SDS011;47835;52.778;5.956;2022-08-19T04:18:29;10.38;;;3.05;;
61895;SDS011;47835;52.778;5.956;2022-08-19T04:20:56;4.65;;;2.80;;
61895;SDS011;47835;52.778;5.956;2022-08-19T04:23:22;3.95;;;2.20;;
61895;SDS011;47835;52.778;5.956;2022-08-19T04:25:48;8.63;;;3.10;;
61895;SDS011;47835;52.778;5.956;2022-08-19T04:28:14;5.38;;;3.65;;
61895;SDS011;47835;52.778;5.956;2022-08-19T04:30:45;4.25;;;3.00;;
61895;SDS011;47835;52.778;5.956;2022-08-19T04:33:14;6.18;;;3.22;;
61895;SDS011;47835;52.778;5.956;2022-08-19T04:35:42;4.78;;;2.92;;
61895;SDS011;47835;52.778;5.956;2022-08-19T04:38:10;5.88;;;2.65;;
61895;SDS011;47835;52.778;5.956;2022-08-19T04:40:40;2.75;;;1.85;;
61895;SDS011;47835;52.778;5.956;2022-08-19T04:43:26;3.28;;;1.65;;
61895;SDS011;47835;52.778;5.956;2022-08-19T04:45:52;3.20;;;1.80;;
61895;SDS011;47835;52.778;5.956;2022-08-19T04:48:18;3.50;;;2.47;;
61895;SDS011;47835;52.778;5.956;2022-08-19T04:50:50;5.23;;;2.90;;
61895;SDS011;47835;52.778;5.956;2022-08-19T04:53:21;3.03;;;2.13;;
61895;SDS011;47835;52.778;5.956;2022-08-19T04:55:47;3.53;;;2.38;;
61895;SDS011;47835;52.778;5.956;2022-08-19T04:58:12;3.50;;;2.03;;
61895;SDS011;47835;52.778;5.956;2022-08-19T05:00:38;4.30;;;2.05;;
61895;SDS011;47835;52.778;5.956;2022-08-19T05:03:04;4.22;;;2.50;;
61895;SDS011;47835;52.778;5.956;2022-08-19T05:05:30;4.07;;;2.55;;
61895;SDS011;47835;52.778;5.956;2022-08-19T05:07:56;3.95;;;2.78;;
61895;SDS011;47835;52.778;5.956;2022-08-19T05:10:22;5.22;;;3.60;;
61895;SDS011;47835;52.778;5.956;2022-08-19T05:12:47;6.63;;;4.78;;
61895;SDS011;47835;52.778;5.956;2022-08-19T05:15:13;7.28;;;5.25;;
61895;SDS011;47835;52.778;5.956;2022-08-19T05:17:38;11.30;;;5.72;;
61895;SDS011;47835;52.778;5.956;2022-08-19T05:20:24;11.63;;;8.73;;
61895;SDS011;47835;52.778;5.956;2022-08-19T05:23:10;23.42;;;20.65;;
61895;SDS011;47835;52.778;5.956;2022-08-19T05:25:38;13.02;;;11.07;;
61895;SDS011;47835;52.778;5.956;2022-08-19T05:28:04;9.93;;;8.93;;
61895;SDS011;47835;52.778;5.956;2022-08-19T05:30:30;11.98;;;8.52;;
61895;SDS011;47835;52.778;5.956;2022-08-19T05:32:55;10.38;;;8.35;;
61895;SDS011;47835;52.778;5.956;2022-08-19T05:35:21;11.48;;;7.95;;
61895;SDS011;47835;52.778;5.956;2022-08-19T05:37:48;10.15;;;9.02;;
61895;SDS011;47835;52.778;5.956;2022-08-19T05:40:14;10.73;;;9.05;;
61895;SDS011;47835;52.778;5.956;2022-08-19T05:42:39;10.27;;;9.00;;
61895;SDS011;47835;52.778;5.956;2022-08-19T05:45:05;10.20;;;8.27;;
61895;SDS011;47835;52.778;5.956;2022-08-19T05:47:32;12.23;;;9.15;;
61895;SDS011;47835;52.778;5.956;2022-08-19T05:49:58;10.95;;;9.50;;
61895;SDS011;47835;52.778;5.956;2022-08-19T05:52:24;12.13;;;9.13;;
61895;SDS011;47835;52.778;5.956;2022-08-19T05:54:49;11.80;;;9.30;;
61895;SDS011;47835;52.778;5.956;2022-08-19T05:57:16;15.10;;;12.13;;
61895;SDS011;47835;52.778;5.956;2022-08-19T05:59:41;12.05;;;10.75;;
61895;SDS011;47835;52.778;5.956;2022-08-19T06:02:08;14.98;;;10.07;;
61895;SDS011;47835;52.778;5.956;2022-08-19T06:04:34;18.77;;;9.77;;
61895;SDS011;47835;52.778;5.956;2022-08-19T06:07:00;10.27;;;9.18;;
61895;SDS011;47835;52.778;5.956;2022-08-19T06:09:27;10.50;;;8.38;;
61895;SDS011;47835;52.778;5.956;2022-08-19T06:11:54;10.38;;;8.15;;
61895;SDS011;47835;52.778;5.956;2022-08-19T06:14:23;9.57;;;8.38;;
61895;SDS011;47835;52.778;5.956;2022-08-19T06:16:51;10.60;;;7.32;;
61895;SDS011;47835;52.778;5.956;2022-08-19T06:19:18;10.50;;;7.55;;
61895;SDS011;47835;52.778;5.956;2022-08-19T06:21:47;8.73;;;7.13;;
61895;SDS011;47835;52.778;5.956;2022-08-19T06:24:15;13.00;;;6.93;;
61895;SDS011;47835;52.778;5.956;2022-08-19T06:26:43;13.07;;;7.47;;
61895;SDS011;47835;52.778;5.956;2022-08-19T06:29:12;12.05;;;9.35;;
61895;SDS011;47835;52.778;5.956;2022-08-19T06:31:43;8.82;;;7.07;;
61895;SDS011;47835;52.778;5.956;2022-08-19T06:34:10;9.25;;;6.55;;
61895;SDS011;47835;52.778;5.956;2022-08-19T06:36:38;8.45;;;7.05;;
61895;SDS011;47835;52.778;5.956;2022-08-19T06:39:08;8.90;;;6.30;;
61895;SDS011;47835;52.778;5.956;2022-08-19T06:41:39;7.38;;;4.97;;
61895;SDS011;47835;52.778;5.956;2022-08-19T06:44:07;6.20;;;5.50;;
61895;SDS011;47835;52.778;5.956;2022-08-19T06:46:35;9.63;;;6.78;;
61895;SDS011;47835;52.778;5.956;2022-08-19T06:49:01;10.38;;;8.18;;
61895;SDS011;47835;52.778;5.956;2022-08-19T06:51:28;10.15;;;8.02;;
61895;SDS011;47835;52.778;5.956;2022-08-19T06:53:54;11.45;;;7.47;;
61895;SDS011;47835;52.778;5.956;2022-08-19T06:56:25;9.57;;;6.85;;
61895;SDS011;47835;52.778;5.956;2022-08-19T06:58:58;8.05;;;6.28;;
61895;SDS011;47835;52.778;5.956;2022-08-19T07:01:25;8.73;;;7.10;;
61895;SDS011;47835;52.778;5.956;2022-08-19T07:03:51;10.35;;;6.68;;
61895;SDS011;47835;52.778;5.956;2022-08-19T07:06:17;8.07;;;6.22;;
61895;SDS011;47835;52.778;5.956;2022-08-19T07:08:45;8.75;;;6.43;;
61895;SDS011;47835;52.778;5.956;2022-08-19T07:11:12;7.95;;;6.30;;
61895;SDS011;47835;52.778;5.956;2022-08-19T07:13:40;9.77;;;6.30;;
61895;SDS011;47835;52.778;5.956;2022-08-19T07:16:09;6.57;;;5.43;;
61895;SDS011;47835;52.778;5.956;2022-08-19T07:18:36;7.50;;;5.72;;
61895;SDS011;47835;52.778;5.956;2022-08-19T07:21:03;8.90;;;5.72;;
61895;SDS011;47835;52.778;5.956;2022-08-19T07:23:30;8.43;;;5.60;;
61895;SDS011;47835;52.778;5.956;2022-08-19T07:25:56;7.07;;;5.20;;
61895;SDS011;47835;52.778;5.956;2022-08-19T07:28:22;6.85;;;5.38;;
61895;SDS011;47835;52.778;5.956;2022-08-19T07:30:47;5.95;;;4.78;;
61895;SDS011;47835;52.778;5.956;2022-08-19T07:33:14;8.10;;;5.72;;
61895;SDS011;47835;52.778;5.956;2022-08-19T07:35:41;6.75;;;5.00;;
61895;SDS011;47835;52.778;5.956;2022-08-19T07:38:07;6.75;;;5.35;;
61895;SDS011;47835;52.778;5.956;2022-08-19T07:40:32;7.95;;;5.53;;
61895;SDS011;47835;52.778;5.956;2022-08-19T07:42:58;5.60;;;4.65;;
61895;SDS011;47835;52.778;5.956;2022-08-19T07:45:24;5.80;;;4.85;;
61895;SDS011;47835;52.778;5.956;2022-08-19T07:47:49;7.72;;;5.35;;
61895;SDS011;47835;52.778;5.956;2022-08-19T07:50:15;7.72;;;5.75;;
61895;SDS011;47835;52.778;5.956;2022-08-19T07:52:43;6.78;;;5.63;;
61895;SDS011;47835;52.778;5.956;2022-08-19T07:55:09;9.32;;;5.38;;
61895;SDS011;47835;52.778;5.956;2022-08-19T07:57:35;6.10;;;5.30;;
61895;SDS011;47835;52.778;5.956;2022-08-19T08:00:01;7.85;;;5.55;;
61895;SDS011;47835;52.778;5.956;2022-08-19T08:02:28;7.78;;;6.03;;
61895;SDS011;47835;52.778;5.956;2022-08-19T08:04:54;7.90;;;5.68;;
61895;SDS011;47835;52.778;5.956;2022-08-19T08:07:38;6.53;;;5.38;;
61895;SDS011;47835;52.778;5.956;2022-08-19T08:10:22;7.22;;;5.65;;
61895;SDS011;47835;52.778;5.956;2022-08-19T08:12:48;6.88;;;5.88;;
61895;SDS011;47835;52.778;5.956;2022-08-19T08:15:14;7.18;;;5.47;;
61895;SDS011;47835;52.778;5.956;2022-08-19T08:17:44;7.25;;;5.75;;
61895;SDS011;47835;52.778;5.956;2022-08-19T08:20:11;8.70;;;6.10;;
61895;SDS011;47835;52.778;5.956;2022-08-19T08:22:42;8.57;;;6.90;;
61895;SDS011;47835;52.778;5.956;2022-08-19T08:25:35;9.05;;;6.88;;
61895;SDS011;47835;52.778;5.956;2022-08-19T08:28:02;7.10;;;6.00;;
61895;SDS011;47835;52.778;5.956;2022-08-19T08:30:30;8.85;;;6.10;;
61895;SDS011;47835;52.778;5.956;2022-08-19T08:32:57;8.18;;;5.32;;
61895;SDS011;47835;52.778;5.956;2022-08-19T08:35:23;7.88;;;6.57;;
61895;SDS011;47835;52.778;5.956;2022-08-19T08:37:50;11.35;;;6.97;;
61895;SDS011;47835;52.778;5.956;2022-08-19T08:40:19;12.40;;;7.00;;
61895;SDS011;47835;52.778;5.956;2022-08-19T08:42:59;7.78;;;6.38;;
61895;SDS011;47835;52.778;5.956;2022-08-19T08:45:32;7.72;;;6.90;;
61895;SDS011;47835;52.778;5.956;2022-08-19T08:48:02;7.80;;;7.00;;
61895;SDS011;47835;52.778;5.956;2022-08-19T08:50:36;8.02;;;6.65;;
61895;SDS011;47835;52.778;5.956;2022-08-19T08:53:07;7.85;;;6.85;;
61895;SDS011;47835;52.778;5.956;2022-08-19T08:55:33;7.75;;;6.78;;
61895;SDS011;47835;52.778;5.956;2022-08-19T08:58:04;8.35;;;7.07;;
61895;SDS011;47835;52.778;5.956;2022-08-19T09:00:40;10.20;;;7.07;;
61895;SDS011;47835;52.778;5.956;2022-08-19T09:03:18;7.00;;;6.30;;
61895;SDS011;47835;52.778;5.956;2022-08-19T09:05:57;8.00;;;6.40;;
61895;SDS011;47835;52.778;5.956;2022-08-19T09:08:28;7.50;;;6.47;;
61895;SDS011;47835;52.778;5.956;2022-08-19T09:11:06;11.88;;;7.07;;
61895;SDS011;47835;52.778;5.956;2022-08-19T09:16:32;12.98;;;8.70;;
61895;SDS011;47835;52.778;5.956;2022-08-19T09:19:04;10.70;;;6.30;;
61895;SDS011;47835;52.778;5.956;2022-08-19T09:23:57;9.70;;;6.07;;
61895;SDS011;47835;52.778;5.956;2022-08-19T09:26:23;10.15;;;6.53;;
61895;SDS011;47835;52.778;5.956;2022-08-19T09:28:50;9.02;;;6.88;;
61895;SDS011;47835;52.778;5.956;2022-08-19T09:31:19;7.72;;;6.38;;
61895;SDS011;47835;52.778;5.956;2022-08-19T09:33:46;8.45;;;6.68;;
61895;SDS011;47835;52.778;5.956;2022-08-19T09:36:14;8.43;;;6.25;;
61895;SDS011;47835;52.778;5.956;2022-08-19T09:38:41;11.85;;;7.22;;
61895;SDS011;47835;52.778;5.956;2022-08-19T09:41:08;8.43;;;6.78;;
61895;SDS011;47835;52.778;5.956;2022-08-19T09:43:39;11.10;;;7.40;;
61895;SDS011;47835;52.778;5.956;2022-08-19T09:46:06;11.23;;;7.95;;
61895;SDS011;47835;52.778;5.956;2022-08-19T09:48:34;9.55;;;7.45;;
61895;SDS011;47835;52.778;5.956;2022-08-19T09:51:07;10.60;;;8.00;;
61895;SDS011;47835;52.778;5.956;2022-08-19T09:53:36;8.87;;;8.00;;
61895;SDS011;47835;52.778;5.956;2022-08-19T09:56:03;10.38;;;7.93;;
61895;SDS011;47835;52.778;5.956;2022-08-19T09:58:30;10.80;;;8.05;;
61895;SDS011;47835;52.778;5.956;2022-08-19T10:00:57;8.45;;;7.40;;
61895;SDS011;47835;52.778;5.956;2022-08-19T10:03:24;10.40;;;7.40;;
61895;SDS011;47835;52.778;5.956;2022-08-19T10:05:51;9.32;;;7.45;;
61895;SDS011;47835;52.778;5.956;2022-08-19T10:08:18;10.73;;;8.63;;
61895;SDS011;47835;52.778;5.956;2022-08-19T10:10:49;13.27;;;8.32;;
61895;SDS011;47835;52.778;5.956;2022-08-19T10:13:16;10.75;;;8.88;;
61895;SDS011;47835;52.778;5.956;2022-08-19T10:15:45;10.65;;;8.38;;
61895;SDS011;47835;52.778;5.956;2022-08-19T10:18:10;13.73;;;9.40;;
61895;SDS011;47835;52.778;5.956;2022-08-19T10:20:36;9.95;;;8.95;;
61895;SDS011;47835;52.778;5.956;2022-08-19T10:23:35;12.95;;;10.70;;
61895;SDS011;47835;52.778;5.956;2022-08-19T10:26:03;11.93;;;10.00;;
61895;SDS011;47835;52.778;5.956;2022-08-19T10:28:30;15.25;;;9.63;;
61895;SDS011;47835;52.778;5.956;2022-08-19T10:31:09;10.88;;;9.35;;
61895;SDS011;47835;52.778;5.956;2022-08-19T10:33:36;12.07;;;10.43;;
61895;SDS011;47835;52.778;5.956;2022-08-19T10:36:04;10.60;;;9.50;;
61895;SDS011;47835;52.778;5.956;2022-08-19T10:38:31;11.02;;;9.68;;
61895;SDS011;47835;52.778;5.956;2022-08-19T10:41:05;13.20;;;11.20;;
61895;SDS011;47835;52.778;5.956;2022-08-19T10:43:39;13.18;;;10.55;;
61895;SDS011;47835;52.778;5.956;2022-08-19T10:46:06;13.70;;;10.15;;
61895;SDS011;47835;52.778;5.956;2022-08-19T10:48:33;14.15;;;10.63;;
61895;SDS011;47835;52.778;5.956;2022-08-19T10:50:59;12.00;;;10.80;;
61895;SDS011;47835;52.778;5.956;2022-08-19T10:53:44;14.32;;;10.95;;
61895;SDS011;47835;52.778;5.956;2022-08-19T10:56:10;11.65;;;10.45;;
61895;SDS011;47835;52.778;5.956;2022-08-19T10:58:54;12.82;;;10.52;;
61895;SDS011;47835;52.778;5.956;2022-08-19T11:01:21;13.60;;;10.65;;
61895;SDS011;47835;52.778;5.956;2022-08-19T11:03:47;12.15;;;10.85;;
61895;SDS011;47835;52.778;5.956;2022-08-19T11:06:12;11.55;;;10.35;;
61895;SDS011;47835;52.778;5.956;2022-08-19T11:08:38;10.93;;;9.82;;
61895;SDS011;47835;52.778;5.956;2022-08-19T11:11:04;14.45;;;11.57;;
61895;SDS011;47835;52.778;5.956;2022-08-19T11:13:33;13.48;;;11.35;;
61895;SDS011;47835;52.778;5.956;2022-08-19T11:18:38;12.13;;;10.82;;
61895;SDS011;47835;52.778;5.956;2022-08-19T11:21:17;13.32;;;10.93;;
61895;SDS011;47835;52.778;5.956;2022-08-19T11:23:49;17.13;;;13.65;;
61895;SDS011;47835;52.778;5.956;2022-08-19T11:26:17;13.88;;;11.55;;
61895;SDS011;47835;52.778;5.956;2022-08-19T11:28:45;14.15;;;11.95;;
61895;SDS011;47835;52.778;5.956;2022-08-19T11:31:11;14.85;;;11.20;;
61895;SDS011;47835;52.778;5.956;2022-08-19T11:33:38;19.05;;;12.52;;
61895;SDS011;47835;52.778;5.956;2022-08-19T11:36:03;12.60;;;11.38;;
61895;SDS011;47835;52.778;5.956;2022-08-19T11:38:29;15.68;;;11.63;;
61895;SDS011;47835;52.778;5.956;2022-08-19T11:40:56;14.23;;;12.68;;
61895;SDS011;47835;52.778;5.956;2022-08-19T11:43:23;16.20;;;11.98;;
61895;SDS011;47835;52.778;5.956;2022-08-19T11:45:50;13.13;;;11.63;;
61895;SDS011;47835;52.778;5.956;2022-08-19T11:48:16;13.82;;;12.10;;
61895;SDS011;47835;52.778;5.956;2022-08-19T11:50:51;13.68;;;11.85;;
61895;SDS011;47835;52.778;5.956;2022-08-19T11:53:18;13.38;;;11.55;;
61895;SDS011;47835;52.778;5.956;2022-08-19T11:55:45;13.38;;;11.65;;
61895;SDS011;47835;52.778;5.956;2022-08-19T11:58:11;12.80;;;11.35;;
61895;SDS011;47835;52.778;5.956;2022-08-19T12:00:38;13.05;;;11.75;;
61895;SDS011;47835;52.778;5.956;2022-08-19T12:03:05;14.13;;;10.88;;
61895;SDS011;47835;52.778;5.956;2022-08-19T12:05:31;12.95;;;11.15;;
61895;SDS011;47835;52.778;5.956;2022-08-19T12:07:56;11.85;;;10.68;;
61895;SDS011;47835;52.778;5.956;2022-08-19T12:10:22;13.32;;;11.45;;
61895;SDS011;47835;52.778;5.956;2022-08-19T12:12:47;12.10;;;10.55;;
61895;SDS011;47835;52.778;5.956;2022-08-19T12:15:13;12.95;;;11.63;;
61895;SDS011;47835;52.778;5.956;2022-08-19T12:17:39;13.77;;;11.50;;
61895;SDS011;47835;52.778;5.956;2022-08-19T12:20:07;11.88;;;10.65;;
61895;SDS011;47835;52.778;5.956;2022-08-19T12:22:34;12.75;;;11.15;;
61895;SDS011;47835;52.778;5.956;2022-08-19T12:25:00;13.10;;;11.75;;
61895;SDS011;47835;52.778;5.956;2022-08-19T12:27:26;12.80;;;11.40;;
61895;SDS011;47835;52.778;5.956;2022-08-19T12:29:51;13.10;;;11.30;;
61895;SDS011;47835;52.778;5.956;2022-08-19T12:32:17;11.73;;;10.52;;
61895;SDS011;47835;52.778;5.956;2022-08-19T12:34:43;12.85;;;11.38;;
61895;SDS011;47835;52.778;5.956;2022-08-19T12:37:09;13.55;;;10.80;;
61895;SDS011;47835;52.778;5.956;2022-08-19T12:39:39;12.07;;;10.77;;
61895;SDS011;47835;52.778;5.956;2022-08-19T12:42:07;12.63;;;11.25;;
61895;SDS011;47835;52.778;5.956;2022-08-19T12:44:37;13.50;;;11.52;;
61895;SDS011;47835;52.778;5.956;2022-08-19T12:47:04;12.43;;;10.57;;
61895;SDS011;47835;52.778;5.956;2022-08-19T12:49:31;13.20;;;11.02;;
61895;SDS011;47835;52.778;5.956;2022-08-19T12:52:02;12.05;;;10.40;;
61895;SDS011;47835;52.778;5.956;2022-08-19T12:54:29;10.55;;;9.45;;
61895;SDS011;47835;52.778;5.956;2022-08-19T12:56:55;12.65;;;11.30;;
61895;SDS011;47835;52.778;5.956;2022-08-19T12:59:21;11.43;;;10.18;;
61895;SDS011;47835;52.778;5.956;2022-08-19T13:01:47;12.07;;;10.88;;
61895;SDS011;47835;52.778;5.956;2022-08-19T13:04:13;14.38;;;10.63;;
61895;SDS011;47835;52.778;5.956;2022-08-19T13:06:39;20.08;;;11.15;;
61895;SDS011;47835;52.778;5.956;2022-08-19T13:09:04;13.50;;;10.50;;
61895;SDS011;47835;52.778;5.956;2022-08-19T13:11:30;15.38;;;11.75;;
61895;SDS011;47835;52.778;5.956;2022-08-19T13:13:59;11.68;;;9.70;;
61895;SDS011;47835;52.778;5.956;2022-08-19T13:16:26;12.98;;;10.70;;
61895;SDS011;47835;52.778;5.956;2022-08-19T13:18:52;16.75;;;11.57;;
61895;SDS011;47835;52.778;5.956;2022-08-19T13:21:20;15.38;;;10.55;;
61895;SDS011;47835;52.778;5.956;2022-08-19T13:23:48;13.68;;;10.93;;
61895;SDS011;47835;52.778;5.956;2022-08-19T13:26:14;13.02;;;10.93;;
61895;SDS011;47835;52.778;5.956;2022-08-19T13:28:41;12.35;;;11.05;;
61895;SDS011;47835;52.778;5.956;2022-08-19T13:31:26;12.30;;;10.25;;
61895;SDS011;47835;52.778;5.956;2022-08-19T13:34:12;12.25;;;10.43;;
61895;SDS011;47835;52.778;5.956;2022-08-19T13:36:38;11.77;;;9.90;;
61895;SDS011;47835;52.778;5.956;2022-08-19T13:39:05;10.57;;;9.45;;
61895;SDS011;47835;52.778;5.956;2022-08-19T13:41:32;10.68;;;9.43;;
61895;SDS011;47835;52.778;5.956;2022-08-19T13:43:59;10.38;;;9.30;;
61895;SDS011;47835;52.778;5.956;2022-08-19T13:46:25;11.75;;;10.02;;
61895;SDS011;47835;52.778;5.956;2022-08-19T13:48:52;13.00;;;10.02;;
61895;SDS011;47835;52.778;5.956;2022-08-19T13:51:18;12.30;;;10.73;;
61895;SDS011;47835;52.778;5.956;2022-08-19T13:53:43;14.23;;;11.60;;
61895;SDS011;47835;52.778;5.956;2022-08-19T13:56:10;15.00;;;12.43;;
61895;SDS011;47835;52.778;5.956;2022-08-19T13:58:37;16.73;;;13.63;;
61895;SDS011;47835;52.778;5.956;2022-08-19T14:01:04;20.10;;;12.30;;
61895;SDS011;47835;52.778;5.956;2022-08-19T14:03:31;15.18;;;11.85;;
61895;SDS011;47835;52.778;5.956;2022-08-19T14:05:57;15.45;;;12.23;;
61895;SDS011;47835;52.778;5.956;2022-08-19T14:08:23;15.35;;;11.55;;
61895;SDS011;47835;52.778;5.956;2022-08-19T14:10:48;14.50;;;12.40;;
61895;SDS011;47835;52.778;5.956;2022-08-19T14:13:16;13.52;;;12.00;;
61895;SDS011;47835;52.778;5.956;2022-08-19T14:15:44;13.38;;;11.45;;
61895;SDS011;47835;52.778;5.956;2022-08-19T14:18:12;14.65;;;11.70;;
61895;SDS011;47835;52.778;5.956;2022-08-19T14:20:38;17.17;;;13.15;;
61895;SDS011;47835;52.778;5.956;2022-08-19T14:23:04;15.90;;;12.38;;
61895;SDS011;47835;52.778;5.956;2022-08-19T14:25:32;13.82;;;11.48;;
61895;SDS011;47835;52.778;5.956;2022-08-19T14:27:58;17.80;;;11.48;;
61895;SDS011;47835;52.778;5.956;2022-08-19T14:30:26;16.02;;;11.18;;
61895;SDS011;47835;52.778;5.956;2022-08-19T14:32:55;13.43;;;11.50;;
61895;SDS011;47835;52.778;5.956;2022-08-19T14:35:23;13.50;;;11.05;;
61895;SDS011;47835;52.778;5.956;2022-08-19T14:37:49;12.65;;;10.30;;
61895;SDS011;47835;52.778;5.956;2022-08-19T14:40:19;12.07;;;10.05;;
61895;SDS011;47835;52.778;5.956;2022-08-19T14:42:51;13.75;;;10.57;;
61895;SDS011;47835;52.778;5.956;2022-08-19T14:45:18;16.55;;;9.88;;
61895;SDS011;47835;52.778;5.956;2022-08-19T14:47:43;11.80;;;9.45;;
61895;SDS011;47835;52.778;5.956;2022-08-19T14:50:09;14.27;;;10.88;;
61895;SDS011;47835;52.778;5.956;2022-08-19T14:52:36;13.23;;;10.85;;